»·PEaware :: N1489 KBFL-KMHV

N1489 :: KBFL-KMHV

FLIGHT INFORMATION

Flight Status: Arrived
Operator: Privately registered:
United States
More flights under this callsign
Pilot: Jonathan K. (33121)
Aircraft: BEECH AIRCRAFT BARON
(BE58)
More flights by this aircraft type
Origin: KBFL Meadows
United States
Destination: KMHV Mojave
United States
More flights between these airports :: More routes between these airports
Route: JEFFY
File this flight plan on PilotEdge
Remarks: cat 6
Altitude:
(Current/Filed)
6,500ft
Speed:
(Current/Filed)
160kts
Departed: 13-Jan-21 02:01 PM
Arrived: 13-Jan-21 02:36 PM
Distance/Time
Traveled:
50nm/0:35
Distance/Time
To Go:
Arrived

Flight Plot

Page will automatically refresh every two minutes.

Flight plan parsing failed; only flown route is shown


Map Options




Map Legend


Flown Route
Filed Route
Departure Airport
Arrival Airport
Navaid (VOR, NDB)
Fix

Horizontal Profiles

Position Reports

Time Latitude Longitude Heading Altitude Ground
Speed
13-Jan-21 13:44 35.431849 -119.049937 227 485ft 0kts
13-Jan-21 13:45 35.431849 -119.049937 227 485ft 0kts
13-Jan-21 13:46 35.431849 -119.049937 227 485ft 0kts
13-Jan-21 13:47 35.431849 -119.049937 227 485ft 0kts
13-Jan-21 13:48 35.431849 -119.049937 227 485ft 0kts
13-Jan-21 13:49 35.431849 -119.049937 227 485ft 0kts
13-Jan-21 13:50 35.431849 -119.049937 227 485ft 0kts
13-Jan-21 13:51 35.431849 -119.049937 227 485ft 0kts
13-Jan-21 13:52 35.431849 -119.049936 227 485ft 0kts
13-Jan-21 13:53 35.431849 -119.049936 227 485ft 0kts
13-Jan-21 13:54 35.431849 -119.049936 227 485ft 0kts
13-Jan-21 13:55 35.431849 -119.049936 227 485ft 0kts
13-Jan-21 13:58 35.431849 -119.049936 227 485ft 0kts
13-Jan-21 13:58 35.431849 -119.049936 227 485ft 0kts
13-Jan-21 14:00 35.431845 -119.049941 223 485ft 1kts
13-Jan-21 14:01 35.427172 -119.045839 137 476ft 41kts
13-Jan-21 14:02 35.425783 -119.044761 213 471ft 0kts
13-Jan-21 14:02 35.428944 -119.050497 313 485ft 105kts
13-Jan-21 14:03 35.456707 -119.087810 312 2258ft 159kts
13-Jan-21 14:05 35.429948 -119.108481 147 4634ft 172kts
13-Jan-21 14:05 35.402683 -119.076002 119 5974ft 170kts
13-Jan-21 14:06 35.376626 -119.027406 135 6615ft 182kts
13-Jan-21 14:07 35.334128 -118.990408 149 6500ft 187kts
13-Jan-21 14:08 35.288401 -118.960138 150 6490ft 187kts
13-Jan-21 14:09 35.242573 -118.929193 150 6430ft 188kts
13-Jan-21 14:10 35.196695 -118.898431 150 6425ft 188kts
13-Jan-21 14:11 35.150850 -118.867825 150 6424ft 188kts
13-Jan-21 14:12 35.104707 -118.836969 150 6423ft 189kts
13-Jan-21 14:13 35.058449 -118.806121 150 6423ft 189kts
13-Jan-21 14:14 35.012345 -118.775403 150 6423ft 188kts
13-Jan-21 14:15 34.966207 -118.744691 150 6427ft 189kts
13-Jan-21 14:16 34.920044 -118.714017 150 6428ft 189kts
13-Jan-21 14:17 34.873906 -118.683377 150 6420ft 188kts
13-Jan-21 14:18 34.827875 -118.652866 151 6418ft 188kts
13-Jan-21 14:19 34.782625 -118.622908 151 6413ft 176kts
13-Jan-21 14:20 34.751441 -118.583779 69 6148ft 175kts
13-Jan-21 14:21 34.785094 -118.542786 42 5756ft 170kts
13-Jan-21 14:22 34.817541 -118.501413 49 5352ft 167kts
13-Jan-21 14:23 34.847530 -118.458046 48 4951ft 167kts
13-Jan-21 14:24 34.877555 -118.415045 49 4582ft 165kts
13-Jan-21 14:25 34.906835 -118.373216 49 4516ft 161kts
13-Jan-21 14:26 34.935684 -118.331656 49 4504ft 160kts
13-Jan-21 14:27 34.964643 -118.290080 49 4500ft 160kts
13-Jan-21 14:28 34.993495 -118.248556 48 4495ft 153kts
13-Jan-21 14:29 35.018569 -118.212157 58 4336ft 139kts
13-Jan-21 14:30 35.007959 -118.169311 127 4129ft 151kts
13-Jan-21 14:31 34.989355 -118.127215 54 3615ft 146kts
13-Jan-21 14:32 35.018634 -118.107095 357 3267ft 121kts
13-Jan-21 14:33 35.041305 -118.126843 317 2823ft 89kts
13-Jan-21 14:34 35.054504 -118.142934 314 2734ft 48kts
13-Jan-21 14:35 35.057590 -118.147873 271 2749ft 0kts
13-Jan-21 14:36 35.057596 -118.148273 269 2749ft 16kts
13-Jan-21 14:37 35.057243 -118.152659 211 2757ft 0kts
13-Jan-21 14:38 35.057243 -118.152659 211 2757ft 0kts
13-Jan-21 14:39 35.057243 -118.152659 211 2757ft 0kts
13-Jan-21 14:40 35.057243 -118.152659 211 2757ft 0kts
13-Jan-21 14:41 35.057243 -118.152659 211 2757ft 0kts
13-Jan-21 14:42 35.057243 -118.152659 211 2757ft 0kts

Navigation Log

Ident Type
Flight plan parsing failed, navigation log unavailable